createdAt,value
2019-01-10T00:02:19.668Z,3.50
2019-01-10T00:05:00.589Z,3.40
2019-01-10T00:07:41.183Z,3.50
2019-01-10T00:10:22.749Z,3.50
2019-01-10T00:13:03.944Z,3.60
2019-01-10T00:15:42.787Z,3.60
2019-01-10T00:18:30.721Z,3.60
2019-01-10T00:21:18.632Z,3.50
2019-01-10T00:24:06.432Z,3.50
2019-01-10T00:26:54.369Z,3.50
2019-01-10T00:29:42.239Z,3.50
2019-01-10T00:32:30.437Z,3.50
2019-01-10T00:35:18.306Z,3.50
2019-01-10T00:38:06.166Z,3.50
2019-01-10T00:40:54.073Z,3.50
2019-01-10T00:43:41.991Z,3.50
2019-01-10T00:46:23.190Z,3.50
2019-01-10T00:49:03.822Z,3.60
2019-01-10T00:51:45.071Z,3.60
2019-01-10T00:54:25.910Z,3.70
2019-01-10T00:57:06.741Z,3.70
2019-01-10T00:59:47.249Z,3.70
2019-01-10T01:02:28.225Z,3.70
2019-01-10T01:05:09.226Z,3.70
2019-01-10T01:07:49.755Z,3.60
2019-01-10T01:10:30.325Z,3.60
2019-01-10T01:13:10.654Z,3.50
2019-01-10T01:15:51.140Z,3.50
2019-01-10T01:18:32.000Z,3.50
2019-01-10T01:21:12.786Z,3.60
2019-01-10T01:23:53.539Z,3.50
2019-01-10T01:26:34.462Z,3.50
2019-01-10T01:29:15.178Z,3.40
2019-01-10T01:31:56.503Z,3.40
2019-01-10T01:34:36.790Z,3.40
2019-01-10T01:37:17.656Z,3.20
2019-01-10T01:39:58.591Z,3.20
2019-01-10T01:42:39.196Z,3.20
2019-01-10T01:45:19.518Z,3.20
2019-01-10T01:48:00.461Z,3.20
2019-01-10T01:50:41.296Z,3.20
2019-01-10T01:53:22.254Z,3.20
2019-01-10T01:56:03.078Z,3.20
2019-01-10T01:58:43.907Z,3.20
2019-01-10T02:01:24.796Z,3.30
2019-01-10T02:04:05.698Z,3.30
2019-01-10T02:06:46.596Z,3.30
2019-01-10T02:09:26.018Z,3.20
2019-01-10T02:12:13.922Z,3.20
2019-01-10T02:15:01.840Z,3.30
2019-01-10T02:17:49.706Z,3.30
2019-01-10T02:20:37.546Z,3.20
2019-01-10T02:23:25.369Z,3.20
2019-01-10T02:26:13.304Z,3.10
2019-01-10T02:29:01.178Z,3.10
2019-01-10T02:31:49.042Z,3.10
2019-01-10T02:34:36.921Z,3.10
2019-01-10T02:37:24.759Z,3.10
2019-01-10T02:40:13.121Z,3.10
2019-01-10T02:43:01.032Z,3.10
2019-01-10T02:45:48.855Z,3.10
2019-01-10T02:48:30.192Z,3.20
2019-01-10T02:51:11.122Z,3.30
2019-01-10T02:53:51.644Z,3.40
2019-01-10T02:56:32.509Z,3.40
2019-01-10T02:59:13.329Z,3.50
2019-01-10T03:01:53.910Z,3.60
2019-01-10T03:04:34.910Z,3.60
2019-01-10T03:07:15.975Z,3.60
2019-01-10T03:09:54.805Z,3.50
2019-01-10T03:12:42.726Z,3.50
2019-01-10T03:15:30.641Z,3.50
2019-01-10T03:18:18.518Z,3.40
2019-01-10T03:21:06.440Z,3.20
2019-01-10T03:27:01.135Z,3.20
2019-01-10T03:29:49.042Z,3.40
2019-01-10T03:32:36.969Z,3.30
2019-01-10T03:38:31.763Z,3.40
2019-01-10T03:41:19.640Z,3.40
2019-01-10T03:44:07.472Z,3.30
2019-01-10T03:46:47.816Z,3.30
2019-01-10T03:49:28.548Z,3.20
2019-01-10T03:52:09.056Z,3.20
2019-01-10T03:54:49.451Z,3.20
2019-01-10T03:57:29.954Z,3.20
2019-01-10T04:00:10.420Z,3.10
2019-01-10T04:02:51.050Z,3.00
2019-01-10T04:05:33.907Z,2.90
2019-01-10T04:08:14.490Z,2.90
2019-01-10T04:10:54.977Z,3.00
2019-01-10T04:13:36.134Z,3.10
2019-01-10T04:16:17.244Z,3.20
2019-01-10T04:18:58.412Z,3.20
2019-01-10T04:21:38.949Z,3.10
2019-01-10T04:24:19.217Z,3.10
2019-01-10T04:26:59.839Z,3.10
2019-01-10T04:29:41.013Z,3.00
2019-01-10T04:32:21.464Z,2.90
2019-01-10T04:35:02.519Z,2.80
2019-01-10T04:37:43.586Z,2.80
2019-01-10T04:40:24.338Z,2.80
2019-01-10T04:43:05.456Z,2.70
2019-01-10T04:45:45.981Z,2.60
2019-01-10T04:48:27.146Z,2.70
2019-01-10T04:51:07.564Z,2.70
2019-01-10T04:53:48.220Z,2.70
2019-01-10T04:56:29.262Z,2.60
2019-01-10T04:59:08.054Z,2.70
2019-01-10T05:01:55.880Z,2.60
2019-01-10T05:04:43.702Z,2.50
2019-01-10T05:07:31.493Z,2.50
2019-01-10T05:10:19.386Z,2.40
2019-01-10T05:13:07.260Z,2.40
2019-01-10T05:15:55.116Z,2.40
2019-01-10T05:18:43.004Z,2.40
2019-01-10T05:21:30.898Z,2.40
2019-01-10T05:24:18.733Z,2.30
2019-01-10T05:26:59.293Z,2.30
2019-01-10T05:29:40.239Z,2.40
2019-01-10T05:32:20.797Z,2.40
2019-01-10T05:35:01.264Z,2.50
2019-01-10T05:37:42.337Z,2.50
2019-01-10T05:40:23.184Z,2.50
2019-01-10T05:43:04.116Z,2.50
2019-01-10T05:45:44.521Z,2.50
2019-01-10T05:48:25.063Z,2.50
2019-01-10T05:51:05.750Z,2.50
2019-01-10T05:53:46.594Z,2.40
2019-01-10T05:56:27.106Z,2.30
2019-01-10T05:59:08.083Z,2.30
2019-01-10T06:01:49.279Z,2.30
2019-01-10T06:04:29.665Z,2.40
2019-01-10T06:07:11.237Z,2.40
2019-01-10T06:09:52.009Z,2.40
2019-01-10T06:12:32.743Z,2.50
2019-01-10T06:15:13.301Z,2.40
2019-01-10T06:17:54.309Z,2.30
2019-01-10T06:20:34.970Z,2.30
2019-01-10T06:23:17.910Z,2.30
2019-01-10T06:25:58.429Z,2.30
2019-01-10T06:28:39.697Z,2.30
2019-01-10T06:31:20.681Z,2.30
2019-01-10T06:34:00.997Z,2.30
2019-01-10T06:36:40.603Z,2.20
2019-01-10T06:39:28.426Z,2.30
2019-01-10T06:42:16.333Z,2.30
2019-01-10T06:45:24.993Z,2.30
2019-01-10T06:48:12.903Z,2.30
2019-01-10T06:51:00.777Z,2.30
2019-01-10T06:53:48.677Z,2.20
2019-01-10T06:56:36.509Z,2.20
2019-01-10T06:59:24.385Z,2.30
2019-01-10T07:02:12.195Z,2.30
2019-01-10T07:05:19.315Z,2.20
2019-01-10T07:08:07.204Z,2.10
2019-01-10T07:10:55.085Z,2.20
2019-01-10T07:13:42.921Z,2.30
2019-01-10T07:16:30.796Z,2.30
2019-01-10T07:19:39.432Z,2.30
2019-01-10T07:22:27.316Z,2.30
2019-01-10T07:25:15.207Z,2.30
2019-01-10T07:27:56.722Z,2.30
2019-01-10T07:30:37.783Z,2.30
2019-01-10T07:33:18.032Z,2.30
2019-01-10T07:35:58.896Z,2.30
2019-01-10T07:38:39.667Z,2.20
2019-01-10T07:41:20.337Z,2.20
2019-01-10T07:44:00.808Z,2.10
2019-01-10T07:46:41.845Z,2.00
2019-01-10T07:49:22.472Z,1.90
2019-01-10T07:52:03.458Z,1.90
2019-01-10T07:54:44.179Z,1.70
2019-01-10T07:57:24.595Z,1.80
2019-01-10T08:00:05.019Z,1.80
2019-01-10T08:02:46.299Z,1.80
2019-01-10T08:05:27.258Z,1.80
2019-01-10T08:08:07.834Z,1.90
2019-01-10T08:10:48.859Z,1.90
2019-01-10T08:13:29.894Z,1.90
2019-01-10T08:16:10.305Z,2.00
2019-01-10T08:18:51.540Z,2.00
2019-01-10T08:21:32.832Z,2.00
2019-01-10T08:24:13.895Z,2.00
2019-01-10T08:26:55.128Z,2.20
2019-01-10T08:29:35.543Z,2.20
2019-01-10T08:32:16.709Z,2.30
2019-01-10T08:34:57.069Z,2.40
2019-01-10T08:37:37.789Z,2.50
2019-01-10T08:40:18.891Z,2.60
2019-01-10T08:43:00.887Z,2.80
2019-01-10T08:45:41.715Z,2.80
2019-01-10T08:48:22.025Z,2.80
2019-01-10T08:51:03.017Z,2.80
2019-01-10T08:53:43.515Z,3.00
2019-01-10T08:56:24.567Z,3.10
2019-01-10T08:59:05.379Z,3.30
2019-01-10T09:01:46.637Z,3.40
2019-01-10T09:04:27.225Z,3.50
2019-01-10T09:07:07.999Z,3.60
2019-01-10T09:09:49.382Z,3.60
2019-01-10T09:12:30.551Z,3.70
2019-01-10T09:15:11.681Z,3.80
2019-01-10T09:17:41.473Z,3.90
2019-01-10T09:20:12.972Z,3.80
2019-01-10T09:22:41.605Z,3.70
2019-01-10T09:25:29.719Z,3.60
2019-01-10T09:28:18.052Z,3.70
2019-01-10T09:33:59.695Z,3.90
2019-01-10T09:36:47.711Z,3.90
2019-01-10T09:39:47.192Z,3.80
2019-01-10T09:42:37.077Z,3.90
2019-01-10T09:45:42.836Z,4.00
2019-01-10T09:51:30.878Z,4.10
2019-01-10T09:54:18.906Z,4.10
2019-01-10T09:57:06.858Z,4.20
2019-01-10T09:59:54.872Z,4.10
2019-01-10T10:02:42.983Z,4.10
2019-01-10T10:05:11.620Z,4.20
2019-01-10T10:07:59.701Z,4.00
2019-01-10T10:11:01.728Z,4.00
2019-01-10T10:13:37.263Z,4.10
2019-01-10T10:16:25.110Z,4.10
2019-01-10T10:19:06.237Z,4.20
2019-01-10T10:21:47.158Z,4.20
2019-01-10T10:24:27.961Z,4.40
2019-01-10T10:27:08.332Z,4.40
2019-01-10T10:29:49.531Z,4.50
2019-01-10T10:32:28.863Z,4.60
2019-01-10T10:35:17.126Z,4.60
2019-01-10T10:38:05.089Z,4.70
2019-01-10T10:44:01.403Z,4.60
2019-01-10T10:46:49.239Z,4.40
2019-01-10T10:49:37.118Z,4.30
2019-01-10T10:54:03.370Z,4.30
2019-01-10T10:56:31.901Z,4.40
2019-01-10T10:59:00.393Z,4.50
2019-01-10T11:01:28.917Z,4.40
2019-01-10T11:03:57.458Z,4.40
2019-01-10T11:06:26.013Z,4.50
2019-01-10T11:08:54.559Z,4.60
2019-01-10T11:11:23.105Z,4.60
2019-01-10T11:13:51.719Z,4.50
2019-01-10T11:16:20.170Z,4.50
2019-01-10T11:18:48.678Z,4.50
2019-01-10T11:21:17.208Z,4.50
2019-01-10T11:23:45.694Z,4.60
2019-01-10T11:26:14.253Z,4.70
2019-01-10T11:28:42.789Z,4.60
2019-01-10T11:31:11.263Z,4.70
2019-01-10T11:33:59.140Z,4.70
2019-01-10T11:36:27.623Z,4.70
2019-01-10T11:38:56.329Z,4.70
2019-01-10T11:41:24.906Z,4.80
2019-01-10T11:43:53.481Z,4.80
2019-01-10T11:46:23.009Z,4.90
2019-01-10T11:48:51.528Z,4.80
2019-01-10T11:51:20.090Z,4.70
2019-01-10T11:53:48.567Z,4.70
2019-01-10T11:56:17.143Z,4.70
2019-01-10T11:58:45.689Z,4.70
2019-01-10T12:01:14.352Z,4.50
2019-01-10T12:03:42.903Z,4.50
2019-01-10T12:06:11.527Z,4.50
2019-01-10T12:08:40.057Z,4.40
2019-01-10T12:11:08.524Z,4.40
2019-01-10T12:13:37.006Z,4.20
2019-01-10T12:16:05.698Z,4.20
2019-01-10T12:18:34.237Z,4.30
2019-01-10T12:21:02.713Z,4.20
2019-01-10T12:23:31.271Z,4.20
2019-01-10T12:25:59.844Z,4.20
2019-01-10T12:28:28.371Z,4.30
2019-01-10T12:30:56.835Z,4.30
2019-01-10T12:33:25.313Z,4.40
2019-01-10T12:35:53.785Z,4.40
2019-01-10T12:38:22.367Z,4.40
2019-01-10T12:40:50.918Z,4.50
2019-01-10T12:43:19.476Z,4.80
2019-01-10T12:45:47.968Z,4.80
2019-01-10T12:48:16.573Z,4.90
2019-01-10T12:50:45.057Z,4.90
2019-01-10T12:53:13.882Z,4.70
2019-01-10T12:55:42.380Z,4.60
2019-01-10T12:58:10.969Z,4.60
2019-01-10T13:00:39.498Z,4.50
2019-01-10T13:03:08.355Z,4.60
2019-01-10T13:05:37.821Z,4.60
2019-01-10T13:08:06.777Z,4.50
2019-01-10T13:10:35.219Z,4.60
2019-01-10T13:13:03.854Z,4.70
2019-01-10T13:15:32.409Z,4.70
2019-01-10T13:18:00.959Z,4.70
2019-01-10T13:20:29.499Z,4.80
2019-01-10T13:22:58.075Z,4.90
2019-01-10T13:25:26.639Z,4.90
2019-01-10T13:27:57.218Z,4.90
2019-01-10T13:30:25.640Z,4.80
2019-01-10T13:32:54.460Z,4.80
2019-01-10T13:35:23.060Z,4.80
2019-01-10T13:37:51.663Z,4.80
2019-01-10T13:40:20.169Z,4.80
2019-01-10T13:42:48.693Z,4.80
2019-01-10T13:45:18.778Z,4.80
2019-01-10T13:47:50.579Z,4.80
2019-01-10T13:50:21.916Z,4.80
2019-01-10T13:52:50.398Z,4.70
2019-01-10T13:55:20.011Z,4.70
2019-01-10T13:57:48.552Z,4.70
2019-01-10T14:00:20.047Z,4.60
2019-01-10T14:02:48.575Z,4.60
2019-01-10T14:05:17.129Z,4.60
2019-01-10T14:07:45.785Z,4.60
2019-01-10T14:10:16.640Z,4.70
2019-01-10T14:12:45.296Z,4.70
2019-01-10T14:15:19.952Z,4.70
2019-01-10T14:17:48.484Z,4.70
2019-01-10T14:20:17.225Z,4.60
2019-01-10T14:22:45.757Z,4.60
2019-01-10T14:25:14.304Z,4.70
2019-01-10T14:27:42.830Z,4.70
2019-01-10T14:30:21.127Z,4.70
2019-01-10T14:32:49.755Z,4.70
2019-01-10T14:35:18.849Z,4.60
2019-01-10T14:37:47.520Z,4.60
2019-01-10T14:40:16.167Z,4.50
2019-01-10T14:42:44.777Z,4.40
2019-01-10T14:45:15.854Z,4.40
2019-01-10T14:47:44.348Z,4.40
2019-01-10T14:50:13.820Z,4.30
2019-01-10T14:52:42.816Z,4.30
2019-01-10T14:55:13.134Z,4.20
2019-01-10T14:57:41.868Z,4.20
2019-01-10T15:00:24.151Z,4.20
2019-01-10T15:02:52.700Z,4.30
2019-01-10T15:05:21.296Z,4.20
2019-01-10T15:07:49.935Z,4.30
2019-01-10T15:10:18.637Z,4.30
2019-01-10T15:12:47.778Z,4.30
2019-01-10T15:15:21.354Z,4.40
2019-01-10T15:17:50.346Z,4.30
2019-01-10T15:20:21.641Z,4.30
2019-01-10T15:22:50.358Z,4.30
2019-01-10T15:25:18.886Z,4.30
2019-01-10T15:27:47.430Z,4.30
2019-01-10T15:30:24.057Z,4.40
2019-01-10T15:32:52.671Z,4.40
2019-01-10T15:35:21.203Z,4.40
2019-01-10T15:37:49.709Z,4.40
2019-01-10T15:40:21.518Z,4.40
2019-01-10T15:42:51.729Z,4.40
2019-01-10T15:45:20.330Z,4.30
2019-01-10T15:47:48.800Z,4.30
2019-01-10T15:50:19.017Z,4.30
2019-01-10T15:52:47.721Z,4.30
2019-01-10T15:55:18.331Z,4.30
2019-01-10T15:57:46.881Z,4.30
2019-01-10T16:00:23.442Z,4.30
2019-01-10T16:02:53.815Z,4.40
2019-01-10T16:05:22.420Z,4.40
2019-01-10T16:07:52.845Z,4.30
2019-01-10T16:10:21.494Z,4.40
2019-01-10T16:12:50.370Z,4.40
2019-01-10T16:15:22.616Z,4.40
2019-01-10T16:17:51.069Z,4.40
2019-01-10T16:20:19.617Z,4.40
2019-01-10T16:22:48.307Z,4.40
2019-01-10T16:25:19.679Z,4.40
2019-01-10T16:27:48.623Z,4.40
2019-01-10T16:30:22.366Z,4.40
2019-01-10T16:32:51.062Z,4.30
2019-01-10T16:35:19.614Z,4.30
2019-01-10T16:37:48.318Z,4.40
2019-01-10T16:40:18.323Z,4.40
2019-01-10T16:42:50.267Z,4.40
2019-01-10T16:45:21.464Z,4.40
2019-01-10T16:47:50.010Z,4.40
2019-01-10T16:50:18.581Z,4.40
2019-01-10T16:52:48.055Z,4.40
2019-01-10T16:55:16.691Z,4.40
2019-01-10T16:57:45.234Z,4.40
2019-01-10T17:00:22.630Z,4.40
2019-01-10T17:02:51.167Z,4.50
2019-01-10T17:05:21.357Z,4.50
2019-01-10T17:07:50.192Z,4.50
2019-01-10T17:10:18.808Z,4.50
2019-01-10T17:12:47.445Z,4.60
2019-01-10T17:15:16.823Z,4.60
2019-01-10T17:17:46.341Z,4.60
2019-01-10T17:20:20.410Z,4.50
2019-01-10T17:22:49.508Z,4.50
2019-01-10T17:25:18.811Z,4.50
2019-01-10T17:27:47.610Z,4.50
2019-01-10T17:30:24.617Z,4.50
2019-01-10T17:32:53.306Z,4.60
2019-01-10T17:35:24.620Z,4.60
2019-01-10T17:37:53.273Z,4.60
2019-01-10T17:40:22.970Z,4.60
2019-01-10T17:42:52.054Z,4.60
2019-01-10T17:45:23.401Z,4.50
2019-01-10T17:47:52.132Z,4.50
2019-01-10T17:50:20.863Z,4.50
2019-01-10T17:52:49.454Z,4.50
2019-01-10T17:55:18.009Z,4.50
2019-01-10T17:57:46.567Z,4.50
2019-01-10T18:00:19.626Z,4.60
2019-01-10T18:02:48.211Z,4.50
2019-01-10T18:05:16.794Z,4.50
2019-01-10T18:07:45.370Z,4.50
2019-01-10T18:10:16.270Z,4.50
2019-01-10T18:12:44.830Z,4.50
2019-01-10T18:15:18.702Z,4.50
2019-01-10T18:17:50.495Z,4.50
2019-01-10T18:20:26.346Z,4.50
2019-01-10T18:22:55.398Z,4.50
2019-01-10T18:25:24.123Z,4.40
2019-01-10T18:27:52.790Z,4.30
2019-01-10T18:30:25.017Z,4.30
2019-01-10T18:32:53.558Z,4.20
2019-01-10T18:35:26.402Z,4.20
2019-01-10T18:37:53.332Z,4.20
2019-01-10T18:40:22.835Z,4.20
2019-01-10T18:42:51.397Z,4.20
2019-01-10T18:45:28.444Z,4.20
2019-01-10T18:47:57.539Z,4.20
2019-01-10T18:50:26.435Z,4.20
2019-01-10T18:52:54.983Z,4.20
2019-01-10T18:55:23.658Z,4.20
2019-01-10T18:57:52.231Z,4.20
2019-01-10T19:00:26.259Z,4.10
2019-01-10T19:02:56.009Z,4.10
2019-01-10T19:05:24.749Z,4.00
2019-01-10T19:07:53.573Z,4.00
2019-01-10T19:10:24.972Z,4.10
2019-01-10T19:12:55.068Z,4.10
2019-01-10T19:15:23.811Z,4.10
2019-01-10T19:17:53.620Z,4.10
2019-01-10T19:20:26.749Z,4.10
2019-01-10T19:22:56.550Z,4.00
2019-01-10T19:25:25.134Z,4.10
2019-01-10T19:27:56.735Z,4.00
2019-01-10T19:30:27.532Z,4.00
2019-01-10T19:32:56.142Z,4.00
2019-01-10T19:35:24.702Z,4.00
2019-01-10T19:37:53.544Z,4.00
2019-01-10T19:40:22.938Z,4.00
2019-01-10T19:42:51.610Z,4.00
2019-01-10T19:45:22.044Z,4.00
2019-01-10T19:47:52.113Z,4.00
2019-01-10T19:50:24.537Z,4.00
2019-01-10T19:52:55.053Z,3.90
2019-01-10T19:55:23.944Z,3.90
2019-01-10T19:57:52.934Z,3.80
2019-01-10T20:00:28.625Z,3.80
2019-01-10T20:02:57.620Z,3.80
2019-01-10T20:05:27.631Z,3.70
2019-01-10T20:07:57.261Z,3.80
2019-01-10T20:10:25.906Z,3.70
2019-01-10T20:12:55.343Z,3.70
2019-01-10T20:15:23.958Z,3.70
2019-01-10T20:17:52.534Z,3.70
2019-01-10T20:20:27.058Z,3.70
2019-01-10T20:22:55.757Z,3.80
2019-01-10T20:25:28.586Z,3.70
2019-01-10T20:27:58.791Z,3.80
2019-01-10T20:30:27.477Z,3.80
2019-01-10T20:32:56.574Z,3.80
2019-01-10T20:35:25.283Z,3.80
2019-01-10T20:37:53.845Z,3.70
2019-01-10T20:40:22.515Z,3.80
2019-01-10T20:42:51.336Z,3.70
2019-01-10T20:45:20.218Z,3.80
2019-01-10T20:47:49.549Z,3.70
2019-01-10T20:50:18.808Z,3.80
2019-01-10T20:52:47.501Z,3.70
2019-01-10T20:55:17.901Z,3.70
2019-01-10T20:57:46.608Z,3.60
2019-01-10T21:00:23.193Z,3.70
2019-01-10T21:02:51.809Z,3.70
2019-01-10T21:05:20.403Z,3.70
2019-01-10T21:07:49.951Z,3.60
2019-01-10T21:10:20.224Z,3.70
2019-01-10T21:12:50.087Z,3.70
2019-01-10T21:15:26.678Z,3.70
2019-01-10T21:17:55.659Z,3.70
2019-01-10T21:20:24.228Z,3.80
2019-01-10T21:22:53.530Z,3.80
2019-01-10T21:25:22.179Z,3.80
2019-01-10T21:27:50.755Z,3.80
2019-01-10T21:30:21.779Z,3.90
2019-01-10T21:32:50.429Z,3.90
2019-01-10T21:35:19.712Z,3.90
2019-01-10T21:37:48.359Z,3.80
2019-01-10T21:40:20.057Z,3.90
2019-01-10T21:42:49.530Z,3.90
2019-01-10T21:45:21.627Z,3.90
2019-01-10T21:47:50.282Z,3.90
2019-01-10T21:50:23.599Z,3.90
2019-01-10T21:52:53.150Z,4.00
2019-01-10T21:55:23.362Z,4.00
2019-01-10T21:57:51.935Z,4.00
2019-01-10T22:00:31.653Z,4.00
2019-01-10T22:03:00.858Z,4.00
2019-01-10T22:05:29.484Z,4.00
2019-01-10T22:07:58.227Z,4.00
2019-01-10T22:10:27.967Z,4.10
2019-01-10T22:12:56.650Z,4.00
2019-01-10T22:15:25.292Z,4.10
2019-01-10T22:17:53.874Z,4.00
2019-01-10T22:20:22.660Z,3.90
2019-01-10T22:22:51.232Z,3.90
2019-01-10T22:25:20.064Z,3.90
2019-01-10T22:27:48.618Z,3.80
2019-01-10T22:30:19.911Z,3.80
2019-01-10T22:32:48.521Z,3.90
2019-01-10T22:35:18.842Z,4.00
2019-01-10T22:37:47.478Z,4.00
2019-01-10T22:40:20.650Z,4.00
2019-01-10T22:42:49.167Z,3.90
2019-01-10T22:45:18.353Z,3.90
2019-01-10T22:47:48.123Z,3.90
2019-01-10T22:50:18.649Z,3.90
2019-01-10T22:52:47.134Z,3.90
2019-01-10T22:55:16.946Z,3.90
2019-01-10T22:57:45.557Z,3.90
2019-01-10T23:00:30.972Z,3.90
2019-01-10T23:03:08.146Z,3.90
2019-01-10T23:05:44.024Z,3.90
2019-01-10T23:08:12.580Z,3.90
2019-01-10T23:10:41.150Z,4.00
2019-01-10T23:13:09.711Z,4.00
2019-01-10T23:15:38.248Z,4.00
2019-01-10T23:18:07.739Z,4.10
2019-01-10T23:20:36.515Z,4.10
2019-01-10T23:23:07.866Z,4.20
2019-01-10T23:25:36.500Z,4.20
2019-01-10T23:28:05.713Z,4.20
2019-01-10T23:30:57.445Z,4.10
2019-01-10T23:33:26.774Z,4.10
2019-01-10T23:36:00.627Z,4.10
2019-01-10T23:38:29.635Z,4.10
2019-01-10T23:40:58.748Z,4.10
2019-01-10T23:43:27.363Z,4.20
2019-01-10T23:45:55.841Z,4.20
2019-01-10T23:48:24.483Z,4.20
2019-01-10T23:50:53.014Z,4.30
2019-01-10T23:53:21.586Z,4.40
2019-01-10T23:55:50.121Z,4.40
2019-01-10T23:58:18.819Z,4.30
